createdAt,value
2023-11-23T00:02:15.330Z,100.00
2023-11-23T00:04:54.755Z,100.00
2023-11-23T00:07:21.641Z,100.00
2023-11-23T00:09:48.381Z,100.00
2023-11-23T00:12:15.830Z,100.00
2023-11-23T00:14:47.433Z,100.00
2023-11-23T00:17:16.960Z,100.00
2023-11-23T00:19:50.333Z,100.00
2023-11-23T00:22:19.768Z,100.00
2023-11-23T00:24:49.704Z,100.00
2023-11-23T00:27:16.607Z,100.00
2023-11-23T00:29:44.946Z,100.00
2023-11-23T00:32:13.466Z,100.00
2023-11-23T00:34:51.635Z,100.00
2023-11-23T00:37:18.647Z,100.00
2023-11-23T00:39:47.607Z,100.00
2023-11-23T00:42:16.703Z,100.00
2023-11-23T00:44:49.663Z,100.00
2023-11-23T00:47:17.850Z,100.00
2023-11-23T00:49:49.917Z,100.00
2023-11-23T00:52:17.659Z,100.00
2023-11-23T00:54:55.016Z,100.00
2023-11-23T00:57:22.289Z,100.00
2023-11-23T00:59:49.155Z,100.00
2023-11-23T01:02:16.138Z,100.00
2023-11-23T01:04:46.478Z,100.00
2023-11-23T01:07:13.514Z,100.00
2023-11-23T01:09:40.262Z,100.00
2023-11-23T01:12:10.118Z,100.00
2023-11-23T01:14:37.466Z,100.00
2023-11-23T01:17:04.870Z,100.00
2023-11-23T01:19:31.718Z,100.00
2023-11-23T01:21:58.443Z,100.00
2023-11-23T01:24:25.181Z,100.00
2023-11-23T01:26:51.981Z,100.00
2023-11-23T01:29:20.429Z,100.00
2023-11-23T01:31:47.204Z,100.00
2023-11-23T01:34:14.133Z,100.00
2023-11-23T01:36:40.996Z,100.00
2023-11-23T01:39:08.706Z,100.00
2023-11-23T01:41:35.553Z,100.00
2023-11-23T01:44:02.275Z,100.00
2023-11-23T01:46:28.994Z,100.00
2023-11-23T01:48:56.927Z,100.00
2023-11-23T01:51:24.142Z,100.00
2023-11-23T01:53:51.453Z,100.00
2023-11-23T01:56:19.990Z,100.00
2023-11-23T01:58:46.781Z,100.00
2023-11-23T02:01:14.104Z,100.00
2023-11-23T02:03:41.176Z,100.00
2023-11-23T02:06:08.191Z,100.00
2023-11-23T02:08:36.862Z,100.00
2023-11-23T02:11:03.903Z,100.00
2023-11-23T02:13:32.177Z,100.00
2023-11-23T02:15:59.000Z,100.00
2023-11-23T02:18:25.900Z,100.00
2023-11-23T02:20:53.131Z,100.00
2023-11-23T02:23:19.978Z,100.00
2023-11-23T02:25:46.849Z,100.00
2023-11-23T02:28:13.892Z,100.00
2023-11-23T02:30:40.688Z,100.00
2023-11-23T02:33:09.836Z,100.00
2023-11-23T02:35:36.693Z,100.00
2023-11-23T02:38:04.060Z,100.00
2023-11-23T02:40:30.830Z,100.00
2023-11-23T02:42:57.821Z,100.00
2023-11-23T02:45:24.749Z,100.00
2023-11-23T02:47:51.747Z,100.00
2023-11-23T02:50:18.585Z,100.00
2023-11-23T02:52:45.490Z,100.00
2023-11-23T02:55:12.688Z,100.00
2023-11-23T02:57:39.913Z,100.00
2023-11-23T03:00:09.094Z,100.00
2023-11-23T03:02:36.091Z,100.00
2023-11-23T03:05:02.944Z,100.00
2023-11-23T03:07:29.701Z,100.00
2023-11-23T03:09:56.461Z,100.00
2023-11-23T03:12:23.345Z,100.00
2023-11-23T03:14:50.387Z,100.00
2023-11-23T03:17:20.358Z,100.00
2023-11-23T03:19:47.207Z,100.00
2023-11-23T03:22:14.457Z,100.00
2023-11-23T03:24:41.242Z,100.00
2023-11-23T03:27:10.804Z,100.00
2023-11-23T03:29:39.019Z,100.00
2023-11-23T03:32:05.924Z,100.00
2023-11-23T03:34:33.090Z,100.00
2023-11-23T03:36:59.944Z,100.00
2023-11-23T03:39:27.370Z,100.00
2023-11-23T03:41:54.188Z,100.00
2023-11-23T03:44:21.401Z,100.00
2023-11-23T03:46:48.180Z,100.00
2023-11-23T03:49:14.926Z,100.00
2023-11-23T03:51:42.618Z,100.00
2023-11-23T03:54:09.967Z,100.00
2023-11-23T03:56:39.275Z,100.00
2023-11-23T03:59:06.550Z,100.00
2023-11-23T04:01:33.423Z,100.00
2023-11-23T04:04:00.323Z,100.00
2023-11-23T04:06:28.415Z,100.00
2023-11-23T04:08:55.323Z,100.00
2023-11-23T04:11:24.734Z,100.00
2023-11-23T04:13:51.723Z,100.00
2023-11-23T04:16:18.588Z,100.00
2023-11-23T04:18:46.210Z,100.00
2023-11-23T04:21:13.381Z,100.00
2023-11-23T04:23:40.315Z,100.00
2023-11-23T04:26:07.254Z,100.00
2023-11-23T04:28:35.885Z,100.00
2023-11-23T04:31:04.632Z,100.00
2023-11-23T04:33:31.758Z,100.00
2023-11-23T04:35:58.898Z,100.00
2023-11-23T04:38:25.842Z,100.00
2023-11-23T04:40:52.644Z,100.00
2023-11-23T04:43:19.456Z,100.00
2023-11-23T04:45:46.424Z,100.00
2023-11-23T04:48:13.351Z,100.00
2023-11-23T04:50:41.020Z,100.00
2023-11-23T04:53:07.908Z,100.00
2023-11-23T04:55:34.890Z,100.00
2023-11-23T04:58:01.657Z,100.00
2023-11-23T05:00:28.767Z,100.00
2023-11-23T05:02:55.985Z,100.00
2023-11-23T05:05:22.888Z,100.00
2023-11-23T05:07:49.672Z,100.00
2023-11-23T05:10:17.499Z,100.00
2023-11-23T05:12:44.462Z,100.00
2023-11-23T05:15:11.646Z,100.00
2023-11-23T05:17:39.018Z,100.00
2023-11-23T05:20:06.141Z,100.00
2023-11-23T05:22:32.954Z,100.00
2023-11-23T05:24:59.734Z,100.00
2023-11-23T05:27:26.570Z,100.00
2023-11-23T05:29:53.453Z,100.00
2023-11-23T05:32:20.302Z,100.00
2023-11-23T05:34:47.114Z,100.00
2023-11-23T05:37:14.039Z,100.00
2023-11-23T05:39:43.733Z,100.00
2023-11-23T05:42:11.507Z,100.00
2023-11-23T05:44:38.812Z,100.00
2023-11-23T05:47:05.841Z,100.00
2023-11-23T05:49:32.766Z,100.00
2023-11-23T05:51:59.531Z,100.00
2023-11-23T05:54:26.483Z,100.00
2023-11-23T05:56:53.296Z,100.00
2023-11-23T05:59:20.273Z,100.00
2023-11-23T06:01:47.286Z,100.00
2023-11-23T06:04:14.321Z,100.00
2023-11-23T06:06:41.290Z,100.00
2023-11-23T06:09:10.768Z,100.00
2023-11-23T06:11:37.752Z,100.00
2023-11-23T06:14:04.915Z,100.00
2023-11-23T06:16:31.737Z,100.00
2023-11-23T06:18:59.322Z,100.00
2023-11-23T06:21:32.161Z,100.00
2023-11-23T06:23:59.780Z,100.00
2023-11-23T06:26:27.040Z,100.00
2023-11-23T06:28:53.822Z,100.00
2023-11-23T06:31:20.709Z,100.00
2023-11-23T06:33:47.603Z,100.00
2023-11-23T06:36:14.411Z,100.00
2023-11-23T06:38:43.281Z,100.00
2023-11-23T06:41:20.312Z,100.00
2023-11-23T06:43:48.356Z,100.00
2023-11-23T06:46:15.708Z,100.00
2023-11-23T06:48:45.821Z,100.00
2023-11-23T06:51:13.071Z,100.00
2023-11-23T06:53:48.536Z,100.00
2023-11-23T06:56:16.123Z,100.00
2023-11-23T06:58:49.779Z,100.00
2023-11-23T07:01:17.235Z,100.00
2023-11-23T07:03:44.775Z,100.00
2023-11-23T07:06:12.465Z,100.00
2023-11-23T07:08:43.543Z,100.00
2023-11-23T07:11:14.437Z,100.00
2023-11-23T07:13:41.238Z,100.00
2023-11-23T07:16:10.587Z,100.00
2023-11-23T07:18:41.350Z,100.00
2023-11-23T07:21:08.369Z,100.00
2023-11-23T07:23:37.883Z,100.00
2023-11-23T07:26:05.059Z,100.00
2023-11-23T07:28:33.246Z,100.00
2023-11-23T07:31:00.287Z,100.00
2023-11-23T07:33:31.123Z,100.00
2023-11-23T07:35:58.140Z,100.00
2023-11-23T07:38:24.980Z,100.00
2023-11-23T07:40:51.762Z,100.00
2023-11-23T07:43:18.633Z,100.00
2023-11-23T07:45:45.447Z,100.00
2023-11-23T07:48:15.566Z,100.00
2023-11-23T07:50:42.606Z,100.00
2023-11-23T07:53:09.671Z,100.00
2023-11-23T07:55:36.514Z,100.00
2023-11-23T07:58:03.476Z,100.00
2023-11-23T08:00:30.364Z,100.00
2023-11-23T08:02:57.378Z,100.00
2023-11-23T08:05:25.133Z,100.00
2023-11-23T08:07:52.496Z,100.00
2023-11-23T08:10:19.595Z,100.00
2023-11-23T08:12:46.412Z,100.00
2023-11-23T08:15:14.557Z,100.00
2023-11-23T08:17:51.159Z,100.00
2023-11-23T08:20:28.364Z,100.00
2023-11-23T08:22:55.685Z,100.00
2023-11-23T08:25:22.566Z,100.00
2023-11-23T08:27:49.399Z,100.00
2023-11-23T08:30:17.059Z,100.00
2023-11-23T08:32:44.054Z,100.00
2023-11-23T08:35:11.239Z,100.00
2023-11-23T08:37:38.739Z,100.00
2023-11-23T08:40:07.024Z,100.00
2023-11-23T08:42:34.836Z,100.00
2023-11-23T08:45:03.087Z,100.00
2023-11-23T08:47:30.766Z,100.00
2023-11-23T08:49:57.498Z,100.00
2023-11-23T08:52:24.362Z,100.00
2023-11-23T08:54:51.309Z,100.00
2023-11-23T08:57:18.228Z,98.94
2023-11-23T08:59:45.011Z,98.76
2023-11-23T09:02:19.771Z,98.96
2023-11-23T09:04:48.054Z,98.57
2023-11-23T09:07:14.984Z,97.50
2023-11-23T09:09:41.788Z,97.76
2023-11-23T09:12:08.889Z,97.91
2023-11-23T09:14:46.139Z,97.91
2023-11-23T09:17:16.097Z,97.93
2023-11-23T09:19:43.625Z,97.46
2023-11-23T09:22:12.168Z,96.73
2023-11-23T09:24:40.213Z,96.30
2023-11-23T09:27:11.383Z,95.56
2023-11-23T09:29:38.392Z,95.08
2023-11-23T09:32:06.718Z,95.24
2023-11-23T09:34:33.765Z,95.61
2023-11-23T09:37:00.838Z,95.56
2023-11-23T09:39:27.914Z,95.13
2023-11-23T09:41:56.040Z,95.64
2023-11-23T09:44:23.122Z,95.11
2023-11-23T09:46:50.960Z,94.46
2023-11-23T09:49:20.102Z,94.91
2023-11-23T09:51:49.289Z,94.18
2023-11-23T09:54:20.159Z,94.55
2023-11-23T09:56:47.342Z,94.71
2023-11-23T09:59:14.389Z,95.30
2023-11-23T10:01:45.310Z,93.96
2023-11-23T10:04:13.295Z,93.73
2023-11-23T10:06:41.445Z,93.66
2023-11-23T10:09:08.996Z,93.77
2023-11-23T10:11:39.007Z,93.92
2023-11-23T10:14:05.745Z,94.07
2023-11-23T10:16:35.680Z,93.42
2023-11-23T10:19:02.510Z,92.61
2023-11-23T10:21:32.567Z,93.15
2023-11-23T10:24:08.979Z,92.62
2023-11-23T10:26:36.304Z,92.45
2023-11-23T10:29:03.228Z,92.66
2023-11-23T10:31:34.513Z,92.04
2023-11-23T10:34:02.322Z,91.91
2023-11-23T10:36:29.386Z,92.86
2023-11-23T10:39:01.315Z,92.68
2023-11-23T10:41:28.207Z,92.28
2023-11-23T10:43:55.110Z,92.41
2023-11-23T10:46:22.433Z,92.37
2023-11-23T10:48:50.513Z,92.30
2023-11-23T10:51:17.555Z,92.30
2023-11-23T10:53:44.481Z,92.34
2023-11-23T10:56:15.658Z,91.73
2023-11-23T10:58:50.383Z,91.47
2023-11-23T11:01:23.176Z,90.55
2023-11-23T11:03:51.133Z,90.46
2023-11-23T11:06:19.374Z,90.85
2023-11-23T11:08:56.682Z,90.25
2023-11-23T11:11:24.253Z,89.77
2023-11-23T11:13:59.717Z,90.39
2023-11-23T11:16:35.057Z,90.72
2023-11-23T11:19:08.912Z,89.02
2023-11-23T11:21:45.543Z,89.89
2023-11-23T11:24:22.986Z,89.58
2023-11-23T11:26:49.987Z,88.44
2023-11-23T11:29:20.034Z,88.84
2023-11-23T11:31:51.079Z,88.66
2023-11-23T11:34:19.261Z,88.65
2023-11-23T11:36:47.804Z,89.46
2023-11-23T11:39:16.124Z,89.40
2023-11-23T11:41:43.444Z,88.67
2023-11-23T11:44:11.957Z,88.05
2023-11-23T11:46:40.215Z,87.83
2023-11-23T11:49:08.306Z,88.79
2023-11-23T11:51:46.271Z,88.88
2023-11-23T11:54:13.073Z,88.04
2023-11-23T11:56:40.527Z,88.87
2023-11-23T11:59:08.649Z,88.00
2023-11-23T12:01:42.967Z,88.03
2023-11-23T12:04:09.990Z,87.01
2023-11-23T12:06:36.889Z,86.42
2023-11-23T12:09:03.934Z,86.64
2023-11-23T12:11:38.036Z,87.45
2023-11-23T12:14:09.707Z,87.11
2023-11-23T12:16:37.145Z,86.97
2023-11-23T12:19:16.234Z,87.05
2023-11-23T12:21:50.988Z,86.31
2023-11-23T12:24:21.167Z,85.97
2023-11-23T12:26:50.607Z,86.42
2023-11-23T12:29:21.139Z,86.79
2023-11-23T12:31:53.270Z,86.26
2023-11-23T12:34:24.762Z,85.78
2023-11-23T12:36:51.817Z,85.84
2023-11-23T12:39:18.797Z,86.44
2023-11-23T12:41:55.206Z,85.48
2023-11-23T12:44:22.831Z,85.19
2023-11-23T12:46:50.553Z,85.09
2023-11-23T12:49:17.635Z,85.53
2023-11-23T12:51:50.997Z,85.53
2023-11-23T12:54:17.967Z,84.60
2023-11-23T12:56:45.015Z,84.90
2023-11-23T12:59:11.825Z,84.61
2023-11-23T13:01:41.882Z,83.74
2023-11-23T13:04:10.171Z,83.33
2023-11-23T13:06:37.775Z,84.02
2023-11-23T13:09:05.458Z,83.50
2023-11-23T13:11:46.158Z,82.83
2023-11-23T13:14:12.940Z,83.29
2023-11-23T13:16:39.829Z,83.00
2023-11-23T13:19:17.124Z,82.99
2023-11-23T13:21:54.000Z,83.18
2023-11-23T13:24:22.295Z,83.93
2023-11-23T13:26:50.900Z,84.04
2023-11-23T13:29:17.947Z,83.12
2023-11-23T13:31:45.415Z,83.06
2023-11-23T13:34:13.357Z,82.65
2023-11-23T13:36:40.271Z,82.66
2023-11-23T13:39:09.826Z,83.65
2023-11-23T13:41:39.705Z,84.75
2023-11-23T13:44:06.478Z,84.28
2023-11-23T13:46:33.941Z,84.10
2023-11-23T13:49:01.411Z,83.12
2023-11-23T13:51:31.201Z,83.60
2023-11-23T13:53:59.212Z,83.79
2023-11-23T13:56:26.854Z,82.89
2023-11-23T13:58:53.856Z,82.62
2023-11-23T14:01:20.761Z,83.11
2023-11-23T14:03:47.803Z,83.81
2023-11-23T14:06:17.825Z,83.12
2023-11-23T14:08:55.950Z,82.47
2023-11-23T14:11:22.708Z,83.05
2023-11-23T14:13:56.479Z,82.96
2023-11-23T14:16:23.687Z,83.33
2023-11-23T14:18:55.726Z,83.32
2023-11-23T14:21:22.836Z,83.56
2023-11-23T14:23:51.292Z,82.41
2023-11-23T14:26:21.131Z,82.63
2023-11-23T14:28:50.855Z,82.45
2023-11-23T14:31:23.916Z,82.51
2023-11-23T14:33:56.421Z,81.76
2023-11-23T14:36:23.634Z,82.81
2023-11-23T14:38:56.276Z,81.59
2023-11-23T14:41:24.295Z,82.30
2023-11-23T14:43:51.298Z,81.67
2023-11-23T14:46:19.015Z,81.51
2023-11-23T14:48:45.882Z,81.68
2023-11-23T14:51:13.102Z,81.77
2023-11-23T14:53:40.244Z,82.41
2023-11-23T14:56:09.424Z,82.57
2023-11-23T14:58:36.264Z,82.56
2023-11-23T15:01:03.188Z,81.49
2023-11-23T15:03:30.385Z,82.05
2023-11-23T15:05:57.416Z,81.88
2023-11-23T15:08:24.418Z,82.64
2023-11-23T15:10:51.683Z,82.45
2023-11-23T15:13:25.910Z,82.14
2023-11-23T15:15:57.801Z,82.56
2023-11-23T15:18:25.088Z,82.17
2023-11-23T15:20:51.959Z,82.29
2023-11-23T15:23:21.010Z,82.72
2023-11-23T15:25:47.868Z,82.24
2023-11-23T15:28:14.727Z,82.77
2023-11-23T15:30:42.152Z,82.44
2023-11-23T15:33:11.729Z,82.52
2023-11-23T15:35:43.103Z,81.71
2023-11-23T15:38:10.831Z,81.81
2023-11-23T15:40:37.685Z,81.76
2023-11-23T15:43:04.635Z,81.65
2023-11-23T15:45:32.800Z,82.12
2023-11-23T15:47:59.781Z,81.89
2023-11-23T15:50:29.342Z,82.40
2023-11-23T15:52:57.915Z,83.01
2023-11-23T15:55:25.598Z,83.20
2023-11-23T15:57:52.611Z,82.46
2023-11-23T16:00:25.470Z,83.64
2023-11-23T16:02:54.383Z,83.74
2023-11-23T16:05:27.732Z,83.70
2023-11-23T16:07:55.252Z,84.47
2023-11-23T16:10:22.387Z,84.46
2023-11-23T16:12:49.795Z,84.70
2023-11-23T16:15:17.303Z,83.66
2023-11-23T16:17:44.532Z,83.50
2023-11-23T16:20:16.684Z,84.35
2023-11-23T16:22:45.924Z,83.87
2023-11-23T16:25:12.805Z,84.16
2023-11-23T16:27:40.086Z,84.81
2023-11-23T16:30:07.777Z,84.64
2023-11-23T16:32:34.699Z,84.58
2023-11-23T16:35:02.630Z,85.17
2023-11-23T16:37:29.618Z,84.96
2023-11-23T16:39:56.517Z,85.38
2023-11-23T16:42:23.319Z,85.20
2023-11-23T16:44:50.253Z,85.38
2023-11-23T16:47:16.988Z,86.19
2023-11-23T16:49:47.414Z,86.04
2023-11-23T16:52:14.308Z,85.66
2023-11-23T16:54:41.110Z,85.84
2023-11-23T16:57:09.394Z,86.55
2023-11-23T16:59:36.161Z,86.65
2023-11-23T17:02:03.061Z,87.62
2023-11-23T17:04:29.896Z,87.61
2023-11-23T17:06:57.103Z,86.27
2023-11-23T17:09:25.855Z,87.01
2023-11-23T17:11:54.167Z,87.47
2023-11-23T17:14:23.871Z,87.35
2023-11-23T17:16:52.917Z,87.09
2023-11-23T17:19:19.805Z,88.15
2023-11-23T17:21:48.845Z,88.18
2023-11-23T17:24:16.602Z,88.38
2023-11-23T17:26:43.732Z,88.33
2023-11-23T17:29:13.512Z,88.56
2023-11-23T17:31:42.751Z,87.87
2023-11-23T17:34:09.975Z,88.00
2023-11-23T17:36:36.962Z,87.60
2023-11-23T17:39:04.251Z,87.67
2023-11-23T17:41:38.013Z,88.97
2023-11-23T17:44:05.053Z,88.66
2023-11-23T17:46:31.854Z,89.41
2023-11-23T17:48:58.609Z,88.64
2023-11-23T17:51:29.588Z,88.70
2023-11-23T17:53:56.490Z,88.66
2023-11-23T17:56:23.285Z,88.35
2023-11-23T17:58:50.127Z,88.36
2023-11-23T18:01:18.458Z,88.27
2023-11-23T18:03:46.108Z,88.80
2023-11-23T18:06:12.991Z,89.17
2023-11-23T18:08:40.421Z,89.25
2023-11-23T18:11:07.606Z,89.55
2023-11-23T18:13:35.116Z,89.33
2023-11-23T18:16:03.326Z,90.15
2023-11-23T18:18:30.204Z,90.08
2023-11-23T18:20:58.117Z,89.71
2023-11-23T18:23:25.576Z,89.56
2023-11-23T18:25:52.503Z,89.71
2023-11-23T18:28:21.133Z,89.95
2023-11-23T18:30:54.891Z,89.84
2023-11-23T18:33:22.866Z,89.85
2023-11-23T18:35:49.778Z,89.46
2023-11-23T18:38:16.957Z,90.07
2023-11-23T18:40:44.014Z,89.84
2023-11-23T18:43:12.049Z,90.30
2023-11-23T18:45:41.890Z,90.86
2023-11-23T18:48:08.819Z,91.12
2023-11-23T18:50:35.599Z,91.40
2023-11-23T18:53:03.251Z,91.29
2023-11-23T18:55:30.376Z,91.27
2023-11-23T18:57:57.616Z,92.00
2023-11-23T19:00:24.965Z,91.73
2023-11-23T19:02:54.895Z,91.62
2023-11-23T19:05:22.124Z,91.57
2023-11-23T19:07:49.072Z,91.79
2023-11-23T19:10:17.225Z,91.40
2023-11-23T19:12:48.981Z,91.77
2023-11-23T19:15:17.760Z,91.65
2023-11-23T19:17:44.657Z,92.58
2023-11-23T19:20:12.060Z,92.01
2023-11-23T19:22:39.026Z,91.91
2023-11-23T19:25:06.834Z,92.31
2023-11-23T19:27:34.061Z,92.46
2023-11-23T19:30:01.075Z,92.69
2023-11-23T19:32:28.091Z,92.66
2023-11-23T19:34:55.481Z,92.54
2023-11-23T19:37:22.761Z,93.09
2023-11-23T19:39:54.830Z,93.56
2023-11-23T19:42:25.992Z,93.52
2023-11-23T19:44:53.725Z,93.24
2023-11-23T19:47:21.075Z,93.23
2023-11-23T19:49:48.669Z,93.62
2023-11-23T19:52:23.939Z,93.75
2023-11-23T19:54:55.787Z,92.99
2023-11-23T19:57:22.818Z,93.10
2023-11-23T19:59:49.728Z,93.31
2023-11-23T20:02:16.710Z,93.35
2023-11-23T20:04:43.738Z,93.35
2023-11-23T20:07:11.278Z,93.81
2023-11-23T20:09:38.487Z,94.09
2023-11-23T20:12:05.741Z,94.17
2023-11-23T20:14:32.914Z,94.33
2023-11-23T20:17:01.556Z,94.06
2023-11-23T20:19:29.924Z,93.78
2023-11-23T20:21:57.051Z,93.82
2023-11-23T20:24:25.724Z,93.85
2023-11-23T20:26:52.798Z,94.18
2023-11-23T20:29:19.988Z,94.70
2023-11-23T20:31:52.342Z,94.59
2023-11-23T20:34:19.904Z,94.52
2023-11-23T20:36:46.939Z,94.68
2023-11-23T20:39:16.661Z,94.46
2023-11-23T20:41:44.146Z,94.90
2023-11-23T20:44:11.042Z,95.24
2023-11-23T20:46:38.742Z,94.96
2023-11-23T20:49:05.752Z,95.37
2023-11-23T20:51:36.466Z,94.92
2023-11-23T20:54:05.226Z,95.17
2023-11-23T20:56:32.680Z,94.76
2023-11-23T20:59:03.176Z,94.92
2023-11-23T21:01:40.176Z,95.46
2023-11-23T21:04:07.381Z,95.41
2023-11-23T21:06:34.386Z,95.70
2023-11-23T21:09:03.845Z,95.34
2023-11-23T21:11:33.402Z,95.57
2023-11-23T21:14:00.205Z,96.26
2023-11-23T21:16:27.506Z,96.88
2023-11-23T21:18:55.513Z,96.50
2023-11-23T21:21:22.438Z,95.98
2023-11-23T21:23:49.604Z,95.71
2023-11-23T21:26:18.828Z,95.47
2023-11-23T21:28:47.109Z,95.59
2023-11-23T21:31:13.970Z,95.14
2023-11-23T21:33:42.142Z,95.75
2023-11-23T21:36:09.830Z,95.93
2023-11-23T21:38:47.468Z,96.11
2023-11-23T21:41:15.990Z,95.52
2023-11-23T21:43:43.272Z,95.95
2023-11-23T21:46:12.856Z,96.08
2023-11-23T21:48:54.196Z,95.99
2023-11-23T21:51:25.219Z,95.62
2023-11-23T21:53:52.241Z,95.55
2023-11-23T21:56:19.182Z,95.57
2023-11-23T21:58:49.461Z,95.58
2023-11-23T22:01:16.890Z,95.43
2023-11-23T22:03:44.315Z,95.78
2023-11-23T22:06:11.531Z,96.04
2023-11-23T22:08:40.543Z,95.73
2023-11-23T22:11:09.967Z,95.45
2023-11-23T22:13:39.229Z,96.06
2023-11-23T22:16:06.067Z,96.07
2023-11-23T22:18:33.023Z,96.08
2023-11-23T22:20:59.880Z,96.30
2023-11-23T22:23:27.694Z,96.50
2023-11-23T22:25:55.369Z,96.35
2023-11-23T22:28:23.144Z,96.60
2023-11-23T22:30:50.459Z,96.67
2023-11-23T22:33:18.135Z,96.87
2023-11-23T22:35:45.071Z,97.11
2023-11-23T22:38:13.041Z,97.04
2023-11-23T22:40:40.307Z,95.88
2023-11-23T22:43:07.277Z,95.39
2023-11-23T22:45:34.254Z,94.99
2023-11-23T22:48:01.234Z,92.70
2023-11-23T22:50:28.455Z,92.14
2023-11-23T22:52:55.344Z,92.09
2023-11-23T22:55:22.115Z,90.36
2023-11-23T22:57:49.339Z,89.76
2023-11-23T23:00:16.722Z,88.43
2023-11-23T23:02:43.615Z,88.05
2023-11-23T23:05:10.434Z,86.82
2023-11-23T23:07:37.605Z,84.75
2023-11-23T23:10:04.551Z,84.95
2023-11-23T23:12:31.337Z,84.54
2023-11-23T23:14:58.208Z,84.18
2023-11-23T23:17:25.768Z,83.26
2023-11-23T23:19:52.700Z,82.59
2023-11-23T23:22:26.516Z,82.77
2023-11-23T23:24:55.875Z,81.74
2023-11-23T23:27:23.119Z,82.15
2023-11-23T23:29:49.936Z,81.71
2023-11-23T23:32:18.662Z,81.62
2023-11-23T23:34:45.631Z,80.97
2023-11-23T23:37:12.513Z,80.92
2023-11-23T23:39:39.309Z,80.92
2023-11-23T23:42:06.133Z,80.91
2023-11-23T23:44:34.108Z,81.15
2023-11-23T23:47:01.028Z,81.54
2023-11-23T23:49:28.858Z,81.82
2023-11-23T23:51:55.650Z,81.21
2023-11-23T23:54:22.561Z,81.40
2023-11-23T23:56:49.307Z,81.93
2023-11-23T23:59:16.051Z,81.43
